Time;durP1;ratioP1;P1;durP2;ratioP2;P2;SDS_P1;SDS_P2;PMS_P1;PMS_P2;Temp;Humidity;BMP_temperature;BMP_pressure;BME280_temperature;BME280_humidity;BME280_pressure;Samples;Min_cycle;Max_cycle;Signal;HPM_P1;HPM_P2
2023/07/16 00:00:04;;;;;;;0.28;0.28;;;;;;;20.04;100.00;99220.66;335980;28;4951;-68
2023/07/16 00:00:19;;;;;;;0.40;0.30;;;;;;;20.02;100.00;99215.53;331963;29;17878;-67
2023/07/16 00:00:31;;;;;;;0.50;0.40;;;;;;;20.03;100.00;99217.19;332144;29;18068;-68
2023/07/16 00:00:43;;;;;;;0.40;0.35;;;;;;;20.02;100.00;99219.94;332214;29;18170;-69
2023/07/16 00:00:55;;;;;;;0.38;0.38;;;;;;;20.00;100.00;99217.47;334801;29;4742;-69
2023/07/16 00:01:07;;;;;;;0.38;0.38;;;;;;;20.01;100.00;99220.94;335057;29;5180;-68
2023/07/16 00:01:19;;;;;;;0.30;0.30;;;;;;;19.99;100.00;99220.22;329009;28;16339;-69
2023/07/16 00:01:31;;;;;;;0.30;0.30;;;;;;;19.98;100.00;99222.00;335874;28;5491;-68
2023/07/16 00:01:43;;;;;;;0.40;0.40;;;;;;;20.00;100.00;99219.22;335828;28;4862;-69
2023/07/16 00:01:56;;;;;;;0.60;0.50;;;;;;;19.92;100.00;99225.97;333025;28;18120;-71
2023/07/16 00:02:08;;;;;;;0.88;0.40;;;;;;;19.92;100.00;99220.69;334262;28;4577;-71
2023/07/16 00:02:20;;;;;;;0.90;0.40;;;;;;;19.93;100.00;99227.63;334934;28;17048;-71
2023/07/16 00:02:32;;;;;;;0.35;0.35;;;;;;;19.95;100.00;99225.72;336011;28;4502;-71
2023/07/16 00:02:45;;;;;;;0.30;0.30;;;;;;;19.93;100.00;99235.53;334150;28;5118;-71
2023/07/16 00:02:57;;;;;;;0.40;0.40;;;;;;;19.94;100.00;99229.31;330724;28;18631;-70
2023/07/16 00:03:09;;;;;;;0.30;0.30;;;;;;;19.94;100.00;99231.97;336726;28;5206;-71
2023/07/16 00:03:21;;;;;;;0.28;0.28;;;;;;;19.94;100.00;99236.38;333922;28;18016;-71
2023/07/16 00:03:33;;;;;;;0.30;0.30;;;;;;;19.95;100.00;99236.25;336805;28;4588;-69
2023/07/16 00:03:45;;;;;;;0.40;0.30;;;;;;;19.93;100.00;99238.19;330269;28;4637;-69
2023/07/16 00:03:57;;;;;;;0.35;0.32;;;;;;;19.96;100.00;99237.13;337892;28;4557;-68
2023/07/16 00:04:10;;;;;;;0.38;0.38;;;;;;;19.96;100.00;99245.03;335118;28;11829;-69
2023/07/16 00:04:22;;;;;;;0.40;0.38;;;;;;;19.96;100.00;99239.75;335523;28;17366;-69
2023/07/16 00:04:35;;;;;;;0.40;0.40;;;;;;;19.99;100.00;99249.22;337208;28;4599;-69
2023/07/16 00:04:48;;;;;;;0.50;0.40;;;;;;;19.95;100.00;99241.53;334661;28;17824;-71
2023/07/16 00:05:00;;;;;;;0.50;0.40;;;;;;;19.88;100.00;99240.34;334032;28;11777;-71
2023/07/16 00:05:12;;;;;;;0.57;0.50;;;;;;;19.91;100.00;99244.53;335977;28;8881;-71
2023/07/16 00:05:25;;;;;;;0.60;0.43;;;;;;;19.89;100.00;99247.28;332720;28;17928;-70
2023/07/16 00:05:38;;;;;;;0.50;0.32;;;;;;;19.92;100.00;99252.34;335690;28;4760;-69
2023/07/16 00:05:51;;;;;;;0.32;0.30;;;;;;;19.94;100.00;99250.44;336301;28;4892;-67
2023/07/16 00:06:03;;;;;;;0.30;0.30;;;;;;;19.97;100.00;99253.78;332972;28;17981;-68
2023/07/16 00:06:15;;;;;;;0.40;0.40;;;;;;;19.94;100.00;99250.44;334922;28;5435;-68
2023/07/16 00:06:27;;;;;;;0.35;0.35;;;;;;;19.96;100.00;99250.31;328718;28;18834;-68
2023/07/16 00:06:39;;;;;;;0.65;0.38;;;;;;;19.97;100.00;99256.41;334612;28;4548;-70
2023/07/16 00:06:51;;;;;;;1.10;0.47;;;;;;;19.97;100.00;99253.78;333692;28;18022;-70
2023/07/16 00:07:03;;;;;;;1.05;0.50;;;;;;;19.97;100.00;99253.78;336374;28;4683;-71
2023/07/16 00:07:17;;;;;;;0.82;0.50;;;;;;;19.96;100.00;99263.50;334250;28;4593;-71
2023/07/16 00:07:29;;;;;;;0.45;0.40;;;;;;;19.94;100.00;99266.25;336782;28;4612;-70
2023/07/16 00:07:41;;;;;;;0.40;0.40;;;;;;;19.92;100.00;99257.63;333732;28;18352;-70
2023/07/16 00:07:53;;;;;;;0.38;0.38;;;;;;;19.94;100.00;99257.47;336536;28;5522;-71
2023/07/16 00:08:05;;;;;;;0.40;0.40;;;;;;;19.94;100.00;99266.25;335556;28;4697;-68
2023/07/16 00:08:17;;;;;;;0.50;0.40;;;;;;;19.96;100.00;99274.06;332052;28;16847;-69
2023/07/16 00:08:29;;;;;;;0.60;0.40;;;;;;;19.92;100.00;99262.91;335412;28;4782;-69
2023/07/16 00:08:41;;;;;;;0.73;0.50;;;;;;;19.87;100.00;99270.31;335204;28;5596;-69
2023/07/16 00:08:53;;;;;;;0.50;0.50;;;;;;;19.89;100.00;99275.47;333485;28;17929;-69
2023/07/16 00:09:05;;;;;;;0.65;0.52;;;;;;;19.87;100.00;99270.31;337760;28;4560;-69
2023/07/16 00:09:17;;;;;;;0.80;0.50;;;;;;;19.89;100.00;99268.41;334798;28;17943;-69
2023/07/16 00:09:29;;;;;;;0.93;0.40;;;;;;;19.86;100.00;99273.91;337376;28;4690;-69
2023/07/16 00:09:43;;;;;;;0.60;0.40;;;;;;;19.83;100.00;99274.16;337198;28;4867;-69
2023/07/16 00:09:55;;;;;;;0.40;0.40;;;;;;;19.84;100.00;99269.69;332875;28;18055;-69
2023/07/16 00:10:07;;;;;;;0.40;0.40;;;;;;;19.87;100.00;99282.66;330279;28;18480;-69
2023/07/16 00:10:19;;;;;;;0.40;0.40;;;;;;;19.87;100.00;99270.31;336983;28;4668;-67
2023/07/16 00:10:37;;;;;;;0.47;0.40;;;;;;;19.92;100.00;99273.44;334112;28;17047;-70
2023/07/16 00:10:49;;;;;;;1.30;0.50;;;;;;;19.95;100.00;99275.84;334455;28;17712;-70
2023/07/16 00:11:03;;;;;;;1.20;0.40;;;;;;;19.99;100.00;99272.97;337481;28;5539;-70
2023/07/16 00:11:15;;;;;;;0.32;0.32;;;;;;;19.97;100.00;99280.16;334853;28;17578;-69
2023/07/16 00:11:27;;;;;;;0.30;0.30;;;;;;;19.99;100.00;99271.16;336129;28;18268;-69
2023/07/16 00:11:39;;;;;;;0.30;0.30;;;;;;;20.00;100.00;99269.34;334024;28;4808;-69
2023/07/16 00:11:52;;;;;;;0.40;0.32;;;;;;;19.99;100.00;99275.59;339056;28;4665;-69
2023/07/16 00:12:04;;;;;;;0.60;0.40;;;;;;;20.01;100.00;99276.31;334970;28;19530;-68
2023/07/16 00:12:16;;;;;;;0.57;0.35;;;;;;;20.04;100.00;99276.06;337728;28;4662;-68
2023/07/16 00:12:28;;;;;;;0.32;0.32;;;;;;;20.07;100.00;99281.13;334753;28;18265;-70
2023/07/16 00:12:41;;;;;;;0.40;0.40;;;;;;;20.05;100.00;99277.78;336075;28;4634;-69
2023/07/16 00:12:53;;;;;;;0.40;0.40;;;;;;;20.06;100.00;99287.34;333475;28;9843;-69
2023/07/16 00:13:05;;;;;;;0.50;0.50;;;;;;;20.06;100.00;99284.72;331672;28;4661;-68
2023/07/16 00:13:17;;;;;;;0.40;0.40;;;;;;;20.08;100.00;99282.78;336424;28;4671;-69
2023/07/16 00:13:29;;;;;;;0.40;0.40;;;;;;;20.10;100.00;99289.66;333607;28;17847;-68
2023/07/16 00:13:45;;;;;;;0.45;0.45;;;;;;;20.10;100.00;99283.50;334125;28;5360;-68
2023/07/16 00:13:59;;;;;;;0.40;0.40;;;;;;;20.16;100.00;99290.94;332565;28;17934;-69
2023/07/16 00:14:14;;;;;;;0.30;0.30;;;;;;;20.16;100.00;99285.66;336606;28;4563;-69
2023/07/16 00:14:26;;;;;;;0.30;0.30;;;;;;;20.15;100.00;99289.28;332332;28;17924;-68
2023/07/16 00:14:38;;;;;;;0.40;0.40;;;;;;;20.18;100.00;99289.03;336044;28;5300;-68
2023/07/16 00:14:50;;;;;;;0.40;0.40;;;;;;;20.21;100.00;99287.97;333473;28;18167;-68
2023/07/16 00:15:03;;;;;;;0.80;0.50;;;;;;;20.22;100.00;99281.72;336437;28;4632;-68
2023/07/16 00:15:15;;;;;;;0.82;0.40;;;;;;;20.23;100.00;99281.59;329826;28;17806;-69
2023/07/16 00:15:28;;;;;;;0.40;0.30;;;;;;;20.25;100.00;99284.97;336327;28;4618;-69
2023/07/16 00:15:40;;;;;;;0.30;0.30;;;;;;;20.27;100.00;99287.47;333663;28;18877;-69
2023/07/16 00:15:52;;;;;;;0.30;0.30;;;;;;;20.24;100.00;99283.28;336639;28;5261;-69
2023/07/16 00:16:05;;;;;;;0.30;0.30;;;;;;;20.28;100.00;99274.16;333818;28;16880;-70
2023/07/16 00:16:17;;;;;;;0.40;0.40;;;;;;;20.27;100.00;99277.75;335926;28;5454;-70
2023/07/16 00:16:30;;;;;;;0.40;0.40;;;;;;;20.30;100.00;99276.66;333811;28;11609;-70
2023/07/16 00:16:42;;;;;;;0.52;0.43;;;;;;;20.28;100.00;99279.44;334587;28;4661;-70
2023/07/16 00:16:54;;;;;;;0.60;0.50;;;;;;;20.22;100.00;99279.94;336430;28;4517;-70
2023/07/16 00:17:06;;;;;;;0.47;0.32;;;;;;;20.24;100.00;99270.09;333330;28;17707;-70
2023/07/16 00:17:18;;;;;;;0.22;0.22;;;;;;;20.29;100.00;99270.56;336102;28;4561;-70
2023/07/16 00:17:30;;;;;;;0.30;0.30;;;;;;;20.32;100.00;99274.75;333346;28;17877;-70
2023/07/16 00:17:42;;;;;;;0.40;0.40;;;;;;;20.31;100.00;99266.00;336314;28;4509;-70
2023/07/16 00:17:54;;;;;;;0.50;0.40;;;;;;;20.34;100.00;99273.69;329557;28;4606;-70
2023/07/16 00:18:07;;;;;;;0.50;0.40;;;;;;;20.36;100.00;99276.19;336442;28;4797;-70
2023/07/16 00:18:20;;;;;;;0.43;0.40;;;;;;;20.37;100.00;99277.88;336485;28;4550;-71
2023/07/16 00:18:32;;;;;;;0.40;0.40;;;;;;;20.39;100.00;99273.31;333854;28;17764;-70
2023/07/16 00:18:44;;;;;;;0.45;0.45;;;;;;;20.41;100.00;99273.19;334562;28;5428;-68
2023/07/16 00:18:56;;;;;;;0.30;0.30;;;;;;;20.42;100.00;99270.41;333550;28;17878;-69
2023/07/16 00:19:12;;;;;;;0.30;0.30;;;;;;;20.44;100.00;99271.13;336293;28;4557;-69
2023/07/16 00:19:24;;;;;;;0.40;0.40;;;;;;;20.43;100.00;99260.72;333972;28;17986;-69
2023/07/16 00:19:36;;;;;;;0.68;0.47;;;;;;;20.42;100.00;99269.59;333543;28;17817;-69
2023/07/16 00:19:48;;;;;;;1.50;0.50;;;;;;;20.41;100.00;99267.91;336365;28;4638;-69
2023/07/16 00:20:00;;;;;;;1.63;0.50;;;;;;;20.39;100.00;99275.94;334071;28;5733;-70
2023/07/16 00:20:13;;;;;;;0.47;0.40;;;;;;;20.41;100.00;99273.19;336193;28;4800;-70
2023/07/16 00:20:25;;;;;;;0.45;0.40;;;;;;;20.43;100.00;99266.81;336176;28;4578;-70
2023/07/16 00:20:37;;;;;;;0.45;0.40;;;;;;;20.42;100.00;99264.31;333423;28;17798;-70
2023/07/16 00:20:49;;;;;;;0.50;0.50;;;;;;;20.44;100.00;99260.56;331150;28;5325;-70
2023/07/16 00:21:01;;;;;;;0.50;0.50;;;;;;;20.46;100.00;99260.44;333679;28;11400;-70
2023/07/16 00:21:13;;;;;;;0.47;0.40;;;;;;;20.42;100.00;99259.03;336028;28;4574;-70
2023/07/16 00:21:25;;;;;;;0.60;0.40;;;;;;;20.43;100.00;99266.81;336104;28;4757;-70
2023/07/16 00:21:38;;;;;;;0.50;0.40;;;;;;;20.38;100.00;99263.69;333310;28;18126;-70
2023/07/16 00:21:50;;;;;;;0.30;0.30;;;;;;;20.42;100.00;99261.66;335919;28;4707;-70
2023/07/16 00:22:03;;;;;;;0.40;0.40;;;;;;;20.45;100.00;99270.19;334123;28;11267;-70
2023/07/16 00:22:15;;;;;;;0.45;0.40;;;;;;;20.49;100.00;99265.50;334801;28;18861;-70
2023/07/16 00:22:27;;;;;;;0.40;0.32;;;;;;;20.52;100.00;99270.53;331107;28;4696;-71
2023/07/16 00:22:39;;;;;;;0.40;0.35;;;;;;;20.54;100.00;99273.88;333729;28;19297;-70
2023/07/16 00:22:52;;;;;;;0.65;0.43;;;;;;;20.55;100.00;99276.41;336253;28;4534;-70
2023/07/16 00:23:04;;;;;;;0.88;0.47;;;;;;;20.57;100.00;99273.66;333477;28;17875;-70
2023/07/16 00:23:16;;;;;;;0.55;0.35;;;;;;;20.58;100.00;99275.31;336460;28;4597;-71
2023/07/16 00:23:28;;;;;;;0.40;0.40;;;;;;;20.58;100.00;99270.03;333504;28;19106;-70
2023/07/16 00:23:40;;;;;;;0.80;0.47;;;;;;;20.58;100.00;99275.31;335393;28;4668;-70
2023/07/16 00:23:52;;;;;;;0.70;0.40;;;;;;;20.59;100.00;99273.56;336615;28;4519;-71
2023/07/16 00:24:05;;;;;;;0.93;0.40;;;;;;;20.59;100.00;99277.03;333834;28;18762;-69
2023/07/16 00:24:17;;;;;;;0.70;0.40;;;;;;;20.60;100.00;99268.13;336320;28;4560;-69
2023/07/16 00:24:29;;;;;;;0.63;0.40;;;;;;;20.62;100.00;99279.41;333626;28;19146;-69
2023/07/16 00:24:41;;;;;;;0.30;0.30;;;;;;;20.63;100.00;99273.19;335852;28;9013;-68
2023/07/16 00:24:53;;;;;;;0.57;0.40;;;;;;;20.64;100.00;99271.38;328126;28;11729;-70
2023/07/16 00:25:06;;;;;;;0.55;0.32;;;;;;;20.67;100.00;99274.63;335109;28;5494;-68
2023/07/16 00:25:18;;;;;;;0.45;0.30;;;;;;;20.65;100.00;99271.25;328191;28;11693;-69
2023/07/16 00:25:30;;;;;;;0.57;0.40;;;;;;;20.66;100.00;99275.56;334952;28;4497;-68
2023/07/16 00:25:42;;;;;;;0.60;0.40;;;;;;;20.65;100.00;99271.25;335271;28;4644;-69
2023/07/16 00:25:55;;;;;;;0.40;0.40;;;;;;;20.64;100.00;99269.56;329492;28;18138;-69
2023/07/16 00:26:07;;;;;;;0.30;0.30;;;;;;;20.65;100.00;99273.91;335356;28;4581;-68
2023/07/16 00:26:19;;;;;;;0.22;0.22;;;;;;;20.64;100.00;99269.56;331977;28;5889;-69
2023/07/16 00:26:31;;;;;;;1.40;0.40;;;;;;;20.65;100.00;99271.25;335330;28;4589;-69
2023/07/16 00:26:43;;;;;;;1.80;0.40;;;;;;;20.65;100.00;99268.63;335192;28;4695;-69
2023/07/16 00:26:56;;;;;;;1.33;0.40;;;;;;;20.67;100.00;99273.78;327889;28;18348;-70
2023/07/16 00:27:08;;;;;;;0.80;0.40;;;;;;;20.69;100.00;99267.41;336152;28;7067;-70
2023/07/16 00:27:20;;;;;;;0.40;0.40;;;;;;;20.70;100.00;99273.53;333860;28;18188;-70
2023/07/16 00:27:32;;;;;;;0.43;0.35;;;;;;;20.72;100.00;99269.78;336473;28;4647;-70
2023/07/16 00:27:46;;;;;;;0.30;0.30;;;;;;;20.73;100.00;99268.84;333697;28;19320;-70
2023/07/16 00:27:58;;;;;;;0.40;0.40;;;;;;;20.75;100.00;99266.91;336132;28;5382;-70
2023/07/16 00:28:11;;;;;;;0.40;0.40;;;;;;;20.77;100.00;99268.59;330585;28;18997;-70
2023/07/16 00:28:25;;;;;;;0.50;0.43;;;;;;;20.77;100.00;99268.59;332902;29;18221;-70
2023/07/16 00:28:37;;;;;;;0.40;0.40;;;;;;;20.79;100.00;99271.97;334576;29;4670;-69
2023/07/16 00:28:49;;;;;;;0.30;0.30;;;;;;;20.80;100.00;99268.34;334124;29;5343;-69
2023/07/16 00:29:01;;;;;;;0.30;0.30;;;;;;;20.81;100.00;99267.38;331631;29;17951;-69
2023/07/16 00:29:13;;;;;;;0.40;0.40;;;;;;;20.84;100.00;99269.75;334743;29;4527;-69
2023/07/16 00:29:25;;;;;;;0.40;0.40;;;;;;;20.85;100.00;99268.81;331722;29;18372;-69
2023/07/16 00:29:37;;;;;;;0.40;0.35;;;;;;;20.87;100.00;99266.88;334156;29;5736;-69
2023/07/16 00:29:49;;;;;;;0.45;0.30;;;;;;;20.88;100.00;99273.84;334712;29;4693;-69
2023/07/16 00:30:01;;;;;;;0.50;0.30;;;;;;;20.89;100.00;99263.16;333278;28;19148;-70
2023/07/16 00:30:13;;;;;;;0.30;0.30;;;;;;;20.92;100.00;99262.06;336086;28;5080;-70
2023/07/16 00:30:25;;;;;;;0.30;0.30;;;;;;;20.95;100.00;99273.22;333747;28;4700;-71
2023/07/16 00:30:37;;;;;;;0.40;0.40;;;;;;;20.99;100.00;99271.16;336163;28;5519;-70
2023/07/16 00:30:49;;;;;;;0.47;0.40;;;;;;;21.00;100.00;99266.72;336312;28;4699;-70
2023/07/16 00:31:01;;;;;;;0.50;0.50;;;;;;;21.02;100.00;99268.25;333565;28;11734;-70
2023/07/16 00:31:14;;;;;;;0.40;0.40;;;;;;;21.04;100.00;99261.03;335437;28;4748;-71
2023/07/16 00:31:26;;;;;;;0.47;0.47;;;;;;;21.06;100.00;99264.38;331448;28;4658;-71
2023/07/16 00:31:38;;;;;;;0.52;0.43;;;;;;;21.06;100.00;99260.91;333643;28;18207;-71
2023/07/16 00:31:50;;;;;;;0.43;0.32;;;;;;;21.08;100.00;99257.19;336484;28;5444;-71
2023/07/16 00:32:02;;;;;;;0.45;0.30;;;;;;;21.08;100.00;99251.88;333808;28;17823;-71
2023/07/16 00:32:14;;;;;;;0.40;0.30;;;;;;;21.08;100.00;99257.19;336473;28;4663;-70
2023/07/16 00:32:26;;;;;;;0.30;0.30;;;;;;;21.10;100.00;99260.53;336357;28;4839;-70
2023/07/16 00:32:38;;;;;;;0.50;0.50;;;;;;;21.10;100.00;99249.13;333460;28;17878;-70
2023/07/16 00:32:51;;;;;;;0.50;0.50;;;;;;;21.09;100.00;99253.59;336459;28;4809;-70
2023/07/16 00:33:03;;;;;;;0.47;0.40;;;;;;;21.11;100.00;99243.72;329124;28;13005;-71
2023/07/16 00:33:15;;;;;;;0.35;0.35;;;;;;;21.10;100.00;99244.66;336290;28;5628;-70
2023/07/16 00:33:27;;;;;;;0.30;0.30;;;;;;;21.10;100.00;99243.84;336422;28;5773;-70
2023/07/16 00:33:39;;;;;;;0.30;0.30;;;;;;;21.07;100.00;99244.94;333444;28;18262;-70
2023/07/16 00:33:51;;;;;;;0.30;0.30;;;;;;;21.07;100.00;99244.13;336389;28;4684;-69
2023/07/16 00:34:03;;;;;;;0.30;0.30;;;;;;;21.07;100.00;99239.66;333687;28;18428;-69
2023/07/16 00:34:15;;;;;;;0.40;0.40;;;;;;;21.08;100.00;99246.59;336013;28;4685;-69
2023/07/16 00:34:27;;;;;;;0.40;0.40;;;;;;;21.07;100.00;99244.94;336160;28;4730;-69
2023/07/16 00:34:39;;;;;;;0.40;0.40;;;;;;;21.06;100.00;99248.53;333810;28;18354;-69
2023/07/16 00:34:51;;;;;;;0.43;0.40;;;;;;;21.06;100.00;99245.91;336599;28;4813;-69
2023/07/16 00:35:04;;;;;;;0.43;0.40;;;;;;;21.07;100.00;99246.75;333887;28;11918;-70
2023/07/16 00:35:16;;;;;;;1.10;0.40;;;;;;;21.07;100.00;99244.94;336390;28;4944;-69
2023/07/16 00:35:28;;;;;;;1.48;0.40;;;;;;;21.07;100.00;99249.41;333870;28;5237;-69
2023/07/16 00:35:48;;;;;;;0.90;0.40;;;;;;;21.07;100.00;99252.88;336235;28;4854;-69
2023/07/16 00:36:00;;;;;;;0.57;0.50;;;;;;;21.08;100.00;99251.06;333564;28;17912;-69
2023/07/16 00:36:12;;;;;;;0.50;0.40;;;;;;;21.08;100.00;99251.88;335802;28;5529;-69
2023/07/16 00:36:25;;;;;;;0.90;0.60;;;;;;;21.10;100.00;99252.59;333536;28;17853;-69
2023/07/16 00:36:36;;;;;;;0.90;0.50;;;;;;;21.12;100.00;99252.47;336021;28;4602;-69
2023/07/16 00:36:49;;;;;;;0.75;0.47;;;;;;;21.12;100.00;99253.31;333916;28;4911;-69
2023/07/16 00:37:02;;;;;;;0.50;0.40;;;;;;;21.13;100.00;99255.00;336367;28;5058;-68
2023/07/16 00:37:15;;;;;;;0.63;0.50;;;;;;;21.14;100.00;99261.94;333415;28;15704;-70
2023/07/16 00:37:27;;;;;;;0.52;0.40;;;;;;;21.15;100.00;99255.72;335823;28;5418;-70
2023/07/16 00:37:39;;;;;;;0.50;0.43;;;;;;;21.17;100.00;99260.88;331055;28;4608;-70
2023/07/16 00:37:52;;;;;;;0.40;0.40;;;;;;;21.18;100.00;99251.13;332534;28;17925;-71
2023/07/16 00:38:04;;;;;;;0.40;0.40;;;;;;;21.18;100.00;99251.13;334401;28;11483;-69
2023/07/16 00:38:19;;;;;;;0.40;0.40;;;;;;;21.18;100.00;99248.50;333580;29;18073;-69
2023/07/16 00:38:31;;;;;;;0.30;0.30;;;;;;;21.19;100.00;99253.66;332092;28;18764;-70
2023/07/16 00:38:45;;;;;;;0.30;0.30;;;;;;;21.21;100.00;99250.88;334998;28;5235;-70
2023/07/16 00:38:57;;;;;;;1.55;0.57;;;;;;;21.25;100.00;99244.34;332277;28;17995;-70
2023/07/16 00:39:10;;;;;;;1.63;0.60;;;;;;;21.26;100.00;99246.06;330848;28;4723;-70
2023/07/16 00:39:22;;;;;;;1.00;0.50;;;;;;;21.27;100.00;99242.44;334349;28;17637;-70
2023/07/16 00:39:34;;;;;;;0.30;0.30;;;;;;;21.29;100.00;99238.72;337502;28;4895;-70
2023/07/16 00:39:46;;;;;;;0.30;0.30;;;;;;;21.30;100.00;99239.53;332970;28;18217;-70
2023/07/16 00:39:58;;;;;;;0.30;0.30;;;;;;;21.32;100.00;99237.59;335976;28;4731;-69
2023/07/16 00:40:11;;;;;;;0.40;0.35;;;;;;;21.33;100.00;99242.78;333575;28;11964;-70
2023/07/16 00:40:23;;;;;;;0.47;0.32;;;;;;;21.35;100.00;99242.66;336083;28;4637;-68
2023/07/16 00:40:35;;;;;;;0.57;0.38;;;;;;;21.37;100.00;99240.72;335480;28;4564;-68
2023/07/16 00:40:47;;;;;;;0.55;0.40;;;;;;;21.39;100.00;99243.22;327720;28;18305;-70
2023/07/16 00:40:59;;;;;;;0.47;0.40;;;;;;;21.41;100.00;99246.56;335922;28;5455;-70
2023/07/16 00:41:13;;;;;;;0.47;0.40;;;;;;;21.41;100.00;99242.13;333117;28;17909;-71
2023/07/16 00:41:25;;;;;;;0.60;0.40;;;;;;;21.43;100.00;99249.94;333692;28;11045;-70
2023/07/16 00:41:37;;;;;;;0.75;0.50;;;;;;;21.40;100.00;99251.03;336061;28;4725;-70
2023/07/16 00:41:49;;;;;;;0.60;0.50;;;;;;;21.41;100.00;99247.41;336202;28;4684;-70
2023/07/16 00:42:02;;;;;;;0.60;0.43;;;;;;;21.40;100.00;99253.66;334372;28;13208;-69
2023/07/16 00:42:14;;;;;;;0.40;0.40;;;;;;;21.40;100.00;99240.44;334373;28;17658;-69
2023/07/16 00:42:26;;;;;;;0.40;0.40;;;;;;;21.41;100.00;99247.41;336527;28;5227;-69
2023/07/16 00:42:39;;;;;;;0.40;0.40;;;;;;;21.40;100.00;99245.72;333349;28;18198;-69
2023/07/16 00:42:51;;;;;;;0.35;0.35;;;;;;;21.41;100.00;99247.41;335559;28;4629;-70
2023/07/16 00:43:03;;;;;;;0.70;0.40;;;;;;;21.43;100.00;99242.88;332651;28;17955;-70
2023/07/16 00:43:16;;;;;;;0.70;0.40;;;;;;;21.43;100.00;99250.81;334397;28;5947;-70
2023/07/16 00:43:28;;;;;;;0.35;0.35;;;;;;;21.45;100.00;99238.28;335288;28;19106;-70
2023/07/16 00:43:40;;;;;;;0.35;0.32;;;;;;;21.46;100.00;99242.59;332081;28;5395;-69
2023/07/16 00:43:54;;;;;;;0.70;0.47;;;;;;;21.48;100.00;99248.59;334099;28;7646;-70
2023/07/16 00:44:07;;;;;;;0.80;0.50;;;;;;;21.47;100.00;99251.38;335098;28;4494;-69
2023/07/16 00:44:22;;;;;;;0.40;0.40;;;;;;;21.48;100.00;99238.00;332321;28;18125;-69
2023/07/16 00:44:35;;;;;;;0.35;0.35;;;;;;;21.49;100.00;99249.44;332101;28;16302;-69
2023/07/16 00:44:47;;;;;;;0.40;0.40;;;;;;;21.50;100.00;99248.47;336025;28;4567;-68
2023/07/16 00:45:00;;;;;;;0.30;0.30;;;;;;;21.47;100.00;99246.94;333884;28;18324;-68
2023/07/16 00:45:14;;;;;;;0.30;0.30;;;;;;;21.47;100.00;99246.94;336234;28;5087;-70
2023/07/16 00:45:26;;;;;;;0.60;0.50;;;;;;;21.49;100.00;99250.28;334614;28;18261;-70
2023/07/16 00:45:40;;;;;;;0.60;0.47;;;;;;;21.50;100.00;99251.94;337364;28;4800;-70
2023/07/16 00:45:53;;;;;;;0.32;0.32;;;;;;;21.53;100.00;99254.34;334064;29;17925;-70
2023/07/16 00:46:05;;;;;;;0.30;0.30;;;;;;;21.44;100.00;99260.41;332943;29;18229;-70
2023/07/16 00:46:17;;;;;;;0.40;0.40;;;;;;;21.42;100.00;99262.31;336150;28;5561;-70
2023/07/16 00:46:30;;;;;;;0.40;0.40;;;;;;;21.43;100.00;99261.38;332845;28;16047;-69
2023/07/16 00:46:42;;;;;;;0.50;0.40;;;;;;;21.44;100.00;99262.22;335802;28;5539;-69
2023/07/16 00:46:54;;;;;;;0.60;0.40;;;;;;;21.45;100.00;99264.72;333715;28;18301;-69
2023/07/16 00:47:06;;;;;;;0.50;0.40;;;;;;;21.42;100.00;99264.94;336493;28;5158;-69
2023/07/16 00:47:19;;;;;;;0.30;0.30;;;;;;;21.44;100.00;99267.50;331873;28;18388;-69
2023/07/16 00:47:32;;;;;;;0.30;0.30;;;;;;;21.43;100.00;99268.44;336312;28;5495;-69
2023/07/16 00:47:44;;;;;;;0.30;0.30;;;;;;;21.44;100.00;99263.03;333818;28;18300;-69
2023/07/16 00:47:57;;;;;;;0.60;0.40;;;;;;;21.45;100.00;99275.31;334493;28;5382;-69
2023/07/16 00:48:09;;;;;;;1.42;0.40;;;;;;;21.48;100.00;99268.91;336296;28;4569;-69
2023/07/16 00:48:21;;;;;;;1.65;0.52;;;;;;;21.49;100.00;99270.59;333805;28;19135;-69
2023/07/16 00:48:34;;;;;;;1.23;0.57;;;;;;;21.48;99.77;99275.03;336589;28;5832;-68
2023/07/16 00:48:47;;;;;;;1.10;0.50;;;;;;;21.48;100.00;99269.75;333689;28;18328;-69
2023/07/16 00:48:59;;;;;;;0.43;0.38;;;;;;;21.46;99.79;99271.69;336521;28;4628;-68
2023/07/16 00:49:11;;;;;;;0.40;0.40;;;;;;;21.45;99.38;99264.72;332613;28;17864;-69
2023/07/16 00:49:24;;;;;;;0.50;0.40;;;;;;;21.43;99.24;99266.66;330124;28;5389;-69
2023/07/16 00:49:37;;;;;;;0.40;0.40;;;;;;;21.42;100.00;99264.13;331960;28;18389;-69
2023/07/16 00:49:50;;;;;;;0.40;0.30;;;;;;;21.41;100.00;99263.28;335043;28;4548;-69
2023/07/16 00:50:02;;;;;;;0.77;0.40;;;;;;;21.41;100.00;99263.28;333267;28;18937;-69
2023/07/16 00:50:14;;;;;;;1.10;0.40;;;;;;;21.42;100.00;99259.66;336517;28;5567;-69
2023/07/16 00:50:27;;;;;;;0.85;0.47;;;;;;;21.41;99.42;99258.00;333533;28;18351;-69
2023/07/16 00:50:41;;;;;;;0.95;0.57;;;;;;;21.43;99.36;99253.44;335480;28;11331;-69
2023/07/16 00:50:54;;;;;;;2.00;0.63;;;;;;;21.46;98.75;99255.81;333843;28;17771;-69
2023/07/16 00:51:06;;;;;;;1.52;0.50;;;;;;;21.43;98.03;99253.44;331635;28;19526;-69
2023/07/16 00:51:22;;;;;;;0.70;0.50;;;;;;;21.42;97.79;99253.53;333852;28;17927;-69
2023/07/16 00:51:34;;;;;;;0.30;0.30;;;;;;;21.42;97.03;99253.53;333609;28;18204;-70
2023/07/16 00:51:46;;;;;;;0.30;0.30;;;;;;;21.43;97.08;99255.22;333629;28;5222;-70
2023/07/16 00:52:00;;;;;;;0.50;0.50;;;;;;;21.46;96.65;99250.53;336308;28;5486;-71
2023/07/16 00:52:19;;;;;;;0.68;0.60;;;;;;;21.45;96.20;99253.28;333552;28;17981;-69
2023/07/16 00:52:32;;;;;;;0.50;0.47;;;;;;;21.42;96.75;99249.09;336155;28;17882;-69
2023/07/16 00:52:45;;;;;;;0.40;0.40;;;;;;;21.42;97.38;99253.53;330007;28;19485;-69
2023/07/16 00:52:58;;;;;;;0.40;0.40;;;;;;;21.42;97.80;99254.38;334209;28;19096;-69
2023/07/16 00:53:12;;;;;;;0.45;0.40;;;;;;;21.42;98.44;99256.19;334777;28;4745;-69
2023/07/16 00:53:24;;;;;;;0.50;0.40;;;;;;;21.42;98.40;99254.38;327363;28;18294;-70
2023/07/16 00:53:36;;;;;;;0.75;0.40;;;;;;;21.43;98.44;99256.09;336023;28;4532;-70
2023/07/16 00:53:48;;;;;;;0.60;0.40;;;;;;;21.44;98.47;99257.75;333631;28;17649;-69
2023/07/16 00:54:01;;;;;;;0.57;0.40;;;;;;;21.44;98.32;99263.03;336045;28;5367;-70
2023/07/16 00:54:13;;;;;;;0.30;0.30;;;;;;;21.42;97.82;99259.66;329049;28;16517;-71
2023/07/16 00:54:26;;;;;;;0.30;0.30;;;;;;;21.44;97.79;99256.94;336311;28;5571;-70
2023/07/16 00:54:38;;;;;;;0.90;0.50;;;;;;;21.45;97.40;99258.59;333004;28;18154;-69
2023/07/16 00:54:50;;;;;;;0.90;0.50;;;;;;;21.45;97.20;99264.72;335803;28;4684;-69
2023/07/16 00:55:03;;;;;;;0.80;0.50;;;;;;;21.43;96.40;99256.09;332804;29;4556;-69
2023/07/16 00:55:15;;;;;;;0.47;0.47;;;;;;;21.42;97.00;99257.00;335497;28;4564;-69
2023/07/16 00:55:29;;;;;;;0.50;0.40;;;;;;;21.40;97.80;99260.75;332372;28;18334;-69
2023/07/16 00:55:42;;;;;;;0.30;0.30;;;;;;;21.40;98.13;99258.94;331515;28;5474;-69
2023/07/16 00:55:54;;;;;;;0.32;0.32;;;;;;;21.38;97.98;99258.25;333112;28;18784;-69
2023/07/16 00:56:08;;;;;;;0.52;0.52;;;;;;;21.27;97.57;99259.16;335721;28;5394;-68
2023/07/16 00:56:21;;;;;;;0.93;0.50;;;;;;;21.29;96.82;99262.50;333112;28;18196;-68
2023/07/16 00:56:33;;;;;;;0.85;0.40;;;;;;;21.25;96.89;99261.09;334012;28;18745;-69
2023/07/16 00:56:45;;;;;;;0.57;0.35;;;;;;;21.24;96.91;99250.63;337273;28;4869;-69
2023/07/16 00:56:58;;;;;;;0.30;0.30;;;;;;;21.21;97.59;99254.38;336597;28;4556;-69
2023/07/16 00:57:10;;;;;;;0.30;0.30;;;;;;;21.23;97.64;99254.22;333255;28;18144;-69
2023/07/16 00:57:23;;;;;;;0.28;0.25;;;;;;;21.22;98.53;99258.69;331152;28;5211;-69
2023/07/16 00:57:35;;;;;;;0.40;0.40;;;;;;;21.23;98.99;99256.88;333214;28;19328;-69
2023/07/16 00:57:47;;;;;;;0.47;0.40;;;;;;;21.23;99.41;99260.38;334695;28;5381;-69
2023/07/16 00:58:05;;;;;;;0.35;0.32;;;;;;;21.27;99.20;99258.28;332808;28;18051;-70
2023/07/16 00:58:17;;;;;;;0.28;0.25;;;;;;;21.28;99.01;99263.44;332997;28;17631;-70
2023/07/16 00:58:29;;;;;;;0.40;0.38;;;;;;;21.28;98.41;99254.69;333476;28;18925;-70
2023/07/16 00:58:41;;;;;;;0.57;0.40;;;;;;;21.28;99.66;99257.34;335671;28;4928;-70
2023/07/16 00:58:53;;;;;;;0.40;0.40;;;;;;;21.29;100.00;99248.47;331640;28;5238;-70
2023/07/16 00:59:06;;;;;;;0.40;0.40;;;;;;;21.29;99.91;99261.66;333696;28;18264;-70
2023/07/16 00:59:18;;;;;;;0.40;0.40;;;;;;;21.30;99.50;99258.88;335904;28;4651;-70